Time;durP1;ratioP1;P1;durP2;ratioP2;P2;SDS_P1;SDS_P2;PMS_P1;PMS_P2;Temp;Humidity;BMP_temperature;BMP_pressure;BME280_temperature;BME280_humidity;BME280_pressure;Samples;Min_cycle;Max_cycle;Signal;HPM_P1;HPM_P2
2023/02/20 00:00:51;;;;;;;4.27;2.30;;;3.10;99.90;;;;;;5108807;28;20317;-71
2023/02/20 00:03:18;;;;;;;3.37;2.23;;;3.10;99.90;;;;;;5106137;28;20218;-71
2023/02/20 00:05:45;;;;;;;2.70;2.50;;;3.10;99.90;;;;;;5089237;28;20297;-71
2023/02/20 00:08:12;;;;;;;4.93;3.03;;;3.10;99.90;;;;;;5088464;28;20203;-70
2023/02/20 00:10:40;;;;;;;3.90;2.63;;;3.10;99.90;;;;;;5088139;28;20301;-70
2023/02/20 00:13:07;;;;;;;3.97;2.73;;;3.10;99.90;;;;;;5105698;28;20972;-70
2023/02/20 00:15:35;;;;;;;3.07;2.60;;;3.10;99.90;;;;;;5109075;28;20195;-70
2023/02/20 00:18:02;;;;;;;3.07;2.77;;;3.10;99.90;;;;;;5109328;27;20226;-70
2023/02/20 00:20:30;;;;;;;3.23;2.70;;;3.10;99.90;;;;;;5116117;27;20217;-70
2023/02/20 00:22:57;;;;;;;5.57;2.80;;;3.20;99.90;;;;;;5095668;28;20673;-70
2023/02/20 00:25:24;;;;;;;4.60;2.63;;;3.20;99.90;;;;;;5101278;28;20719;-70
2023/02/20 00:27:51;;;;;;;4.17;2.70;;;3.30;99.90;;;;;;5089316;28;20207;-70
2023/02/20 00:30:21;;;;;;;3.93;2.90;;;3.20;99.90;;;;;;5091794;28;20716;-70
2023/02/20 00:32:51;;;;;;;5.47;2.83;;;3.20;99.90;;;;;;5095047;28;20263;-70
2023/02/20 00:35:19;;;;;;;3.47;2.70;;;3.20;99.90;;;;;;5095326;28;20215;-70
2023/02/20 00:37:46;;;;;;;3.43;2.90;;;3.30;99.90;;;;;;5097589;28;20238;-69
2023/02/20 00:40:14;;;;;;;4.80;3.00;;;3.30;99.90;;;;;;5088552;28;20199;-69
2023/02/20 00:42:41;;;;;;;3.10;2.90;;;3.30;99.90;;;;;;5105290;27;20288;-69
2023/02/20 00:45:08;;;;;;;3.90;2.67;;;3.20;99.90;;;;;;5108705;27;20245;-69
2023/02/20 00:47:35;;;;;;;3.80;2.90;;;3.20;99.90;;;;;;5091468;28;20198;-69
2023/02/20 00:50:04;;;;;;;4.00;2.80;;;3.10;99.90;;;;;;5105852;27;20332;-69
2023/02/20 00:52:31;;;;;;;3.37;2.87;;;3.10;99.90;;;;;;5096857;28;20731;-69
2023/02/20 00:54:58;;;;;;;3.47;3.17;;;3.10;99.90;;;;;;5108371;28;20305;-69
2023/02/20 00:57:25;;;;;;;3.77;3.20;;;3.10;99.90;;;;;;5099864;28;20286;-69
2023/02/20 00:59:52;;;;;;;3.57;3.23;;;3.10;99.90;;;;;;5107711;28;20206;-69
2023/02/20 01:02:19;;;;;;;4.50;3.03;;;3.10;99.90;;;;;;5107825;28;20226;-69
2023/02/20 01:04:46;;;;;;;6.17;3.33;;;3.20;99.90;;;;;;5106527;28;20759;-69
2023/02/20 01:07:15;;;;;;;3.50;3.10;;;3.10;99.90;;;;;;5108166;28;20746;-70
2023/02/20 01:09:42;;;;;;;3.33;3.07;;;3.10;99.90;;;;;;5108130;28;20206;-70
2023/02/20 01:12:08;;;;;;;4.60;3.17;;;3.10;99.90;;;;;;5103583;28;20286;-70
2023/02/20 01:14:35;;;;;;;3.67;3.37;;;3.10;99.90;;;;;;5088268;28;20623;-69
2023/02/20 01:17:03;;;;;;;4.57;3.03;;;3.10;99.90;;;;;;5104127;28;20280;-72
2023/02/20 01:19:29;;;;;;;4.17;3.73;;;3.20;99.90;;;;;;5121335;27;20233;-70
2023/02/20 01:21:56;;;;;;;3.83;3.40;;;3.20;99.90;;;;;;5106187;27;20226;-70
2023/02/20 01:24:24;;;;;;;3.80;3.50;;;3.40;99.90;;;;;;5108067;28;20292;-70
2023/02/20 01:26:51;;;;;;;3.50;3.20;;;3.40;99.90;;;;;;5097252;28;20320;-70
2023/02/20 01:29:19;;;;;;;3.70;3.40;;;3.20;99.90;;;;;;5107095;28;20610;-71
2023/02/20 01:31:49;;;;;;;3.53;3.10;;;3.20;99.90;;;;;;5095449;28;20292;-71
2023/02/20 01:34:16;;;;;;;3.27;3.07;;;3.20;99.90;;;;;;5096568;28;20639;-71
2023/02/20 01:36:47;;;;;;;4.37;3.50;;;3.20;99.90;;;;;;5106532;28;20539;-71
2023/02/20 01:39:17;;;;;;;3.90;3.40;;;3.20;99.90;;;;;;5105691;28;20202;-71
2023/02/20 01:41:47;;;;;;;4.17;3.77;;;3.20;99.90;;;;;;5089131;28;20325;-70
2023/02/20 01:44:19;;;;;;;3.90;3.50;;;3.20;99.90;;;;;;5098812;28;20291;-71
2023/02/20 01:46:52;;;;;;;3.83;3.40;;;3.20;99.90;;;;;;5091079;28;20193;-70
2023/02/20 01:49:27;;;;;;;4.07;3.67;;;3.30;99.90;;;;;;5110370;28;20316;-70
2023/02/20 01:52:01;;;;;;;4.83;3.43;;;3.30;99.90;;;;;;5103301;28;20290;-70
2023/02/20 01:54:30;;;;;;;4.00;3.60;;;3.30;99.90;;;;;;5107558;28;20222;-70
2023/02/20 01:57:02;;;;;;;3.33;3.03;;;3.30;99.90;;;;;;5107552;28;20699;-70
2023/02/20 01:59:33;;;;;;;3.50;3.00;;;3.40;99.90;;;;;;5107696;28;20289;-70
2023/02/20 02:02:00;;;;;;;4.23;3.17;;;3.40;99.90;;;;;;5107324;28;20320;-70
2023/02/20 02:04:28;;;;;;;3.37;3.10;;;3.40;99.90;;;;;;5107794;28;20309;-71
2023/02/20 02:06:55;;;;;;;3.80;3.40;;;3.40;99.90;;;;;;5108053;28;20285;-71
2023/02/20 02:09:33;;;;;;;4.07;3.10;;;3.40;99.90;;;;;;5103238;28;20289;-72
2023/02/20 02:12:01;;;;;;;3.93;3.10;;;3.40;99.90;;;;;;5102038;28;20739;-71
2023/02/20 02:14:28;;;;;;;6.23;3.33;;;3.40;99.90;;;;;;5098892;28;20760;-71
2023/02/20 02:17:17;;;;;;;3.10;2.90;;;3.30;99.90;;;;;;5105608;28;20583;-72
2023/02/20 02:20:34;;;;;;;4.10;3.30;;;3.40;99.90;;;;;;5116712;28;20206;-72
2023/02/20 02:23:51;;;;;;;4.33;3.27;;;3.40;99.90;;;;;;5105738;28;20277;-71
2023/02/20 02:26:38;;;;;;;4.37;3.10;;;3.40;99.90;;;;;;5107780;28;20305;-71
2023/02/20 02:29:26;;;;;;;3.40;3.10;;;3.40;99.90;;;;;;5096140;28;20658;-71
2023/02/20 02:32:25;;;;;;;5.87;3.40;;;3.50;99.90;;;;;;5106982;28;20195;-70
2023/02/20 02:35:25;;;;;;;3.60;3.27;;;3.50;99.90;;;;;;5115027;27;20305;-71
2023/02/20 02:38:03;;;;;;;4.03;3.57;;;3.60;99.90;;;;;;5094316;28;20186;-69
2023/02/20 02:40:38;;;;;;;5.23;3.70;;;3.70;99.90;;;;;;5091281;28;20294;-70
2023/02/20 02:43:12;;;;;;;6.60;3.57;;;3.70;99.90;;;;;;5092647;28;20224;-70
2023/02/20 02:45:45;;;;;;;4.80;3.90;;;3.80;99.90;;;;;;5111402;27;20285;-72
2023/02/20 02:48:17;;;;;;;4.00;3.63;;;3.80;99.90;;;;;;5110590;27;20267;-70
2023/02/20 02:50:47;;;;;;;4.50;3.83;;;3.80;99.90;;;;;;5125773;27;20292;-69
2023/02/20 02:53:16;;;;;;;4.23;3.60;;;3.80;99.90;;;;;;5092427;28;20728;-69
2023/02/20 02:55:43;;;;;;;5.13;4.20;;;3.90;99.90;;;;;;5099759;28;20194;-70
2023/02/20 02:58:11;;;;;;;5.27;3.67;;;3.90;99.90;;;;;;5110750;28;20206;-70
2023/02/20 03:00:41;;;;;;;5.27;4.10;;;4.00;99.90;;;;;;5105270;28;20286;-70
2023/02/20 03:03:13;;;;;;;3.67;3.40;;;4.00;99.90;;;;;;5090696;28;20243;-71
2023/02/20 03:05:46;;;;;;;5.43;3.87;;;4.00;99.90;;;;;;5090463;28;20191;-71
2023/02/20 03:08:29;;;;;;;5.20;4.10;;;4.10;99.90;;;;;;5090501;28;20205;-71
2023/02/20 03:10:59;;;;;;;4.30;3.90;;;4.10;99.90;;;;;;5089935;28;20663;-71
2023/02/20 03:16:16;;;;;;;4.90;4.20;;;4.10;99.90;;;;;;5110429;28;20678;-70
2023/02/20 03:18:44;;;;;;;5.47;4.57;;;4.20;99.90;;;;;;5105455;27;20201;-73
2023/02/20 03:21:15;;;;;;;4.27;3.87;;;4.20;99.90;;;;;;5110510;27;20289;-72
2023/02/20 03:23:49;;;;;;;4.27;3.87;;;4.20;99.90;;;;;;5109771;28;20195;-74
2023/02/20 03:26:21;;;;;;;5.50;4.90;;;4.20;99.90;;;;;;5101203;28;20230;-71
2023/02/20 03:28:54;;;;;;;4.20;3.80;;;4.20;99.90;;;;;;5088583;28;20267;-71
2023/02/20 03:31:27;;;;;;;4.43;4.03;;;4.20;99.90;;;;;;5087955;28;20274;-72
2023/02/20 03:45:11;;;;;;;4.17;3.77;;;4.30;99.90;;;;;;5105934;28;20271;-70
2023/02/20 03:47:44;;;;;;;4.40;3.87;;;4.30;99.90;;;;;;5105615;28;20236;-71
2023/02/20 03:52:58;;;;;;;4.70;4.30;;;4.40;99.90;;;;;;5107266;28;20201;-71
2023/02/20 03:55:27;;;;;;;4.57;4.17;;;4.40;99.90;;;;;;5103291;28;20288;-71
2023/02/20 03:57:57;;;;;;;4.57;4.13;;;4.40;99.90;;;;;;5107546;28;20285;-71
2023/02/20 04:00:30;;;;;;;5.07;4.00;;;4.40;99.90;;;;;;5103563;28;20271;-72
2023/02/20 04:03:02;;;;;;;5.33;4.07;;;4.40;99.90;;;;;;5108258;28;20319;-72
2023/02/20 04:05:33;;;;;;;4.70;4.30;;;4.40;99.90;;;;;;5109795;28;20193;-72
2023/02/20 04:08:06;;;;;;;4.50;4.10;;;4.50;99.90;;;;;;5107220;28;20220;-72
2023/02/20 04:10:40;;;;;;;5.73;4.30;;;4.50;99.90;;;;;;5109242;28;20273;-72
2023/02/20 04:13:08;;;;;;;5.10;4.60;;;4.60;99.90;;;;;;5109336;28;20230;-72
2023/02/20 04:15:35;;;;;;;5.27;4.70;;;4.60;99.90;;;;;;5109367;28;20255;-72
2023/02/20 04:18:07;;;;;;;4.73;4.23;;;4.60;99.90;;;;;;5110117;27;20300;-72
2023/02/20 04:20:34;;;;;;;5.03;4.63;;;4.60;99.90;;;;;;5129727;27;20288;-72
2023/02/20 04:23:05;;;;;;;5.13;4.60;;;4.70;99.90;;;;;;5129095;27;20237;-72
2023/02/20 04:25:40;;;;;;;5.57;5.03;;;4.80;99.90;;;;;;5129969;27;20200;-72
2023/02/20 04:28:07;;;;;;;5.10;4.60;;;4.70;99.90;;;;;;5126515;27;23142;-72
2023/02/20 04:30:34;;;;;;;5.20;4.80;;;4.80;99.90;;;;;;5103486;28;20310;-72
2023/02/20 04:33:01;;;;;;;5.13;4.57;;;4.80;99.90;;;;;;5088607;28;20289;-72
2023/02/20 04:35:28;;;;;;;5.10;4.60;;;4.80;99.90;;;;;;5088914;28;20289;-72
2023/02/20 04:37:56;;;;;;;5.40;4.90;;;4.80;99.90;;;;;;5088269;28;20237;-72
2023/02/20 04:40:24;;;;;;;5.13;4.73;;;4.90;99.90;;;;;;5117735;27;20194;-72
2023/02/20 04:42:52;;;;;;;5.43;4.93;;;4.90;99.90;;;;;;5126166;27;20789;-73
2023/02/20 04:45:19;;;;;;;5.57;4.93;;;4.90;99.90;;;;;;5088752;28;20297;-72
2023/02/20 04:47:47;;;;;;;6.50;4.67;;;5.00;99.90;;;;;;5087932;28;20294;-72
2023/02/20 04:50:19;;;;;;;5.20;4.80;;;5.00;99.90;;;;;;5127059;27;20197;-72
2023/02/20 04:52:46;;;;;;;5.33;4.83;;;5.00;99.90;;;;;;5129090;27;20695;-72
2023/02/20 04:55:13;;;;;;;5.77;5.20;;;5.00;99.90;;;;;;5129131;27;20243;-72
2023/02/20 04:57:40;;;;;;;5.33;4.93;;;5.10;99.90;;;;;;5129086;27;20255;-73
2023/02/20 05:00:11;;;;;;;5.33;4.87;;;5.10;99.90;;;;;;5129018;27;20205;-72
2023/02/20 05:02:39;;;;;;;6.53;4.90;;;5.10;99.90;;;;;;5128823;27;20239;-72
2023/02/20 05:05:07;;;;;;;6.33;5.20;;;5.10;99.90;;;;;;5128940;27;20292;-72
2023/02/20 05:07:37;;;;;;;5.43;5.03;;;5.20;99.90;;;;;;5128814;27;20286;-72
2023/02/20 05:10:04;;;;;;;5.40;4.97;;;5.20;99.90;;;;;;5118672;27;20294;-72
2023/02/20 05:12:31;;;;;;;5.67;5.20;;;5.20;99.90;;;;;;5108312;28;20301;-72
2023/02/20 05:14:57;;;;;;;6.07;5.50;;;5.20;99.90;;;;;;5108221;28;20298;-73
2023/02/20 05:17:26;;;;;;;5.37;4.80;;;5.20;99.90;;;;;;5108116;28;20293;-72
2023/02/20 05:19:52;;;;;;;5.93;5.33;;;5.30;99.90;;;;;;5124305;27;20716;-72
2023/02/20 05:22:18;;;;;;;6.10;5.60;;;5.30;99.90;;;;;;5128520;27;20227;-72
2023/02/20 05:24:46;;;;;;;5.90;5.37;;;5.30;99.90;;;;;;5122240;27;20210;-72
2023/02/20 05:27:14;;;;;;;6.57;5.50;;;5.30;99.90;;;;;;5108326;28;20224;-72
2023/02/20 05:29:45;;;;;;;5.97;5.47;;;5.30;99.90;;;;;;5108089;28;20221;-72
2023/02/20 05:32:12;;;;;;;6.23;5.73;;;5.30;99.90;;;;;;5088364;28;20608;-72
2023/02/20 05:34:40;;;;;;;5.77;5.27;;;5.40;99.90;;;;;;5087363;28;20209;-72
2023/02/20 05:37:07;;;;;;;5.97;5.40;;;5.30;99.90;;;;;;5106258;28;20621;-72
2023/02/20 05:39:34;;;;;;;6.00;5.50;;;5.30;99.90;;;;;;5107609;28;20731;-72
2023/02/20 05:42:01;;;;;;;6.40;5.80;;;5.40;99.90;;;;;;5107638;28;20296;-72
2023/02/20 05:44:28;;;;;;;6.13;5.63;;;5.40;99.90;;;;;;5107947;28;20210;-72
2023/02/20 05:46:55;;;;;;;6.70;5.70;;;5.40;99.90;;;;;;5107562;28;20202;-72
2023/02/20 05:49:22;;;;;;;5.67;5.17;;;5.40;99.90;;;;;;5119551;28;20330;-72
2023/02/20 05:51:51;;;;;;;6.07;5.47;;;5.40;99.90;;;;;;5128209;27;20248;-72
2023/02/20 05:54:18;;;;;;;7.47;5.50;;;5.40;99.90;;;;;;5128313;27;20301;-72
2023/02/20 05:56:47;;;;;;;5.83;5.27;;;5.50;99.90;;;;;;5128552;27;20280;-72
2023/02/20 05:59:17;;;;;;;6.20;5.70;;;5.40;99.90;;;;;;5126035;27;20202;-72
2023/02/20 06:01:44;;;;;;;6.37;5.60;;;5.40;99.90;;;;;;5088459;28;20293;-72
2023/02/20 06:04:11;;;;;;;5.90;5.40;;;5.40;99.90;;;;;;5087410;28;20231;-72
2023/02/20 06:06:40;;;;;;;6.17;5.67;;;5.50;99.90;;;;;;5100076;28;20237;-72
2023/02/20 06:09:10;;;;;;;6.70;6.20;;;5.40;99.90;;;;;;5110007;28;20653;-72
2023/02/20 06:11:37;;;;;;;6.00;5.50;;;5.40;99.90;;;;;;5112256;28;20539;-71
2023/02/20 06:14:04;;;;;;;6.17;5.67;;;5.50;99.90;;;;;;5111893;28;20202;-72
2023/02/20 06:16:32;;;;;;;5.53;5.03;;;5.50;99.90;;;;;;5112226;28;20202;-71
2023/02/20 06:18:59;;;;;;;5.90;5.50;;;5.50;99.90;;;;;;5120362;27;20649;-72
2023/02/20 06:21:27;;;;;;;6.83;6.23;;;5.50;99.90;;;;;;5122143;27;20214;-72
2023/02/20 06:23:55;;;;;;;6.37;5.80;;;5.50;99.90;;;;;;5111233;28;20230;-72
2023/02/20 06:26:23;;;;;;;5.77;5.27;;;5.60;99.90;;;;;;5111919;28;20403;-72
2023/02/20 06:28:52;;;;;;;7.03;6.23;;;5.60;99.90;;;;;;5111278;28;20293;-72
2023/02/20 06:31:21;;;;;;;6.80;6.23;;;5.70;99.90;;;;;;5112321;27;20613;-72
2023/02/20 06:33:48;;;;;;;7.13;6.43;;;5.60;99.90;;;;;;5131611;27;20202;-72
2023/02/20 06:36:21;;;;;;;7.17;6.57;;;5.70;99.90;;;;;;5121763;27;20305;-72
2023/02/20 06:38:48;;;;;;;7.07;6.47;;;5.70;99.90;;;;;;5110818;28;20803;-71
2023/02/20 06:41:15;;;;;;;7.23;6.53;;;5.70;99.90;;;;;;5111298;28;20574;-71
2023/02/20 06:43:43;;;;;;;8.03;7.23;;;5.70;99.90;;;;;;5110576;28;20679;-71
2023/02/20 06:46:10;;;;;;;7.97;7.27;;;5.70;99.90;;;;;;5110687;28;20301;-71
2023/02/20 06:48:44;;;;;;;8.10;7.30;;;5.70;99.90;;;;;;5116156;27;20328;-71
2023/02/20 06:51:11;;;;;;;8.57;7.57;;;5.70;99.90;;;;;;5131271;27;20196;-71
2023/02/20 06:53:41;;;;;;;8.17;7.47;;;5.80;99.90;;;;;;5131266;27;21128;-71
2023/02/20 06:56:10;;;;;;;8.00;7.30;;;5.80;99.90;;;;;;5131209;27;20210;-72
2023/02/20 06:58:37;;;;;;;8.47;7.67;;;5.80;99.90;;;;;;5131368;27;20205;-71
2023/02/20 07:01:05;;;;;;;8.50;7.80;;;5.80;99.90;;;;;;5131302;27;20707;-72
2023/02/20 07:03:32;;;;;;;8.37;7.60;;;5.90;99.90;;;;;;5112927;27;20314;-72
2023/02/20 07:05:59;;;;;;;9.13;8.13;;;5.90;99.90;;;;;;5110780;28;20252;-72
2023/02/20 07:08:26;;;;;;;8.57;7.77;;;5.90;99.90;;;;;;5110560;28;20208;-72
2023/02/20 07:10:54;;;;;;;9.37;8.20;;;5.90;99.90;;;;;;5110279;28;20230;-72
2023/02/20 07:13:21;;;;;;;8.90;8.10;;;6.00;99.90;;;;;;5110458;28;20669;-72
2023/02/20 07:15:48;;;;;;;8.60;7.80;;;6.00;99.90;;;;;;5113556;27;20236;-72
2023/02/20 07:18:17;;;;;;;9.50;8.60;;;6.00;99.90;;;;;;5118787;27;20206;-72
2023/02/20 07:20:44;;;;;;;9.87;7.60;;;6.20;99.90;;;;;;5130736;27;20731;-72
2023/02/20 07:23:11;;;;;;;8.03;7.23;;;6.20;99.90;;;;;;5130127;27;20639;-72
2023/02/20 07:25:38;;;;;;;8.03;7.27;;;6.20;99.90;;;;;;5131063;27;20284;-72
2023/02/20 07:28:07;;;;;;;8.53;7.73;;;6.20;99.90;;;;;;5124943;27;20255;-72
2023/02/20 07:30:34;;;;;;;8.67;7.87;;;6.30;99.90;;;;;;5104636;28;20195;-72
2023/02/20 07:33:01;;;;;;;7.63;6.90;;;6.30;99.90;;;;;;5104032;28;20206;-72
2023/02/20 07:35:29;;;;;;;8.27;7.47;;;6.30;99.90;;;;;;5109967;28;20587;-72
2023/02/20 07:37:56;;;;;;;7.90;7.20;;;6.40;99.90;;;;;;5109742;28;20951;-72
2023/02/20 07:40:23;;;;;;;8.17;7.47;;;6.40;99.90;;;;;;5109845;28;20293;-72
2023/02/20 07:42:50;;;;;;;7.87;7.17;;;6.40;99.90;;;;;;5109940;28;20316;-73
2023/02/20 07:45:17;;;;;;;7.50;6.80;;;6.40;99.90;;;;;;5109995;28;20209;-72
2023/02/20 07:47:44;;;;;;;8.17;7.37;;;6.50;99.90;;;;;;5109794;28;20238;-73
2023/02/20 07:50:10;;;;;;;7.07;6.40;;;6.50;99.90;;;;;;5128585;27;20206;-71
2023/02/20 07:52:39;;;;;;;6.93;6.30;;;6.50;99.90;;;;;;5130608;27;20218;-71
2023/02/20 07:55:06;;;;;;;6.73;6.23;;;6.60;99.90;;;;;;5130384;27;20300;-71
2023/02/20 07:57:36;;;;;;;7.10;6.47;;;6.50;99.90;;;;;;5130704;27;20293;-71
2023/02/20 08:00:03;;;;;;;7.40;6.53;;;6.60;99.90;;;;;;5109873;27;20238;-71
2023/02/20 08:02:30;;;;;;;6.90;6.30;;;6.60;99.90;;;;;;5109762;28;20320;-71
2023/02/20 08:04:57;;;;;;;6.60;6.00;;;6.60;99.90;;;;;;5110042;28;20241;-71
2023/02/20 08:07:24;;;;;;;6.43;5.83;;;6.70;99.90;;;;;;5109345;28;20244;-71
2023/02/20 08:09:52;;;;;;;6.10;5.60;;;6.70;99.90;;;;;;5109570;28;20197;-71
2023/02/20 08:12:19;;;;;;;6.23;5.73;;;6.70;99.90;;;;;;5114917;27;20233;-72
2023/02/20 08:14:49;;;;;;;6.13;5.63;;;6.70;99.90;;;;;;5113502;27;20238;-71
2023/02/20 08:17:16;;;;;;;6.03;5.40;;;6.70;99.90;;;;;;5109407;28;20868;-72
2023/02/20 08:19:43;;;;;;;6.27;5.77;;;6.70;99.90;;;;;;5124309;27;20292;-71
2023/02/20 08:22:10;;;;;;;6.30;5.70;;;6.80;99.90;;;;;;5129678;27;20296;-71
2023/02/20 08:24:37;;;;;;;6.40;5.77;;;6.80;99.90;;;;;;5121314;27;20234;-71
2023/02/20 08:27:06;;;;;;;6.33;5.73;;;6.80;99.90;;;;;;5109245;28;20236;-71
2023/02/20 08:29:33;;;;;;;5.40;5.00;;;6.90;99.90;;;;;;5108875;28;20672;-72
2023/02/20 08:32:00;;;;;;;5.30;4.80;;;6.90;99.90;;;;;;5108088;28;20700;-71
2023/02/20 08:34:27;;;;;;;5.57;5.17;;;6.90;99.90;;;;;;5108627;28;20301;-71
2023/02/20 08:36:53;;;;;;;5.70;5.17;;;6.90;99.90;;;;;;5108848;28;20297;-72
2023/02/20 08:39:20;;;;;;;5.73;5.33;;;6.90;99.90;;;;;;5108745;28;20285;-71
2023/02/20 08:41:47;;;;;;;6.20;5.57;;;6.90;99.90;;;;;;5108868;28;20230;-71
2023/02/20 08:44:16;;;;;;;6.03;5.53;;;6.90;99.90;;;;;;5108388;28;20240;-72
2023/02/20 08:46:47;;;;;;;5.60;5.20;;;6.90;99.90;;;;;;5109037;28;20233;-71
2023/02/20 08:49:16;;;;;;;5.30;4.87;;;7.00;99.90;;;;;;5119284;27;20237;-71
2023/02/20 08:51:44;;;;;;;5.03;4.60;;;7.00;99.90;;;;;;5129098;27;20205;-70
2023/02/20 08:54:10;;;;;;;6.17;5.13;;;7.10;99.90;;;;;;5126572;27;20242;-73
2023/02/20 08:56:37;;;;;;;5.73;5.23;;;7.10;99.90;;;;;;5108364;28;20776;-72
2023/02/20 08:59:04;;;;;;;5.13;4.67;;;7.10;99.90;;;;;;5108706;28;20289;-73
2023/02/20 09:01:33;;;;;;;5.43;4.93;;;7.20;99.90;;;;;;5108673;28;20237;-72
2023/02/20 09:04:01;;;;;;;5.10;4.70;;;7.20;99.90;;;;;;5108505;28;20309;-72
2023/02/20 09:06:28;;;;;;;5.60;5.10;;;7.20;99.90;;;;;;5108681;28;20204;-72
2023/02/20 09:08:55;;;;;;;5.43;4.83;;;7.20;99.90;;;;;;5116375;27;20262;-73
2023/02/20 09:11:22;;;;;;;5.53;4.90;;;7.20;99.90;;;;;;5108744;27;20757;-73
2023/02/20 09:13:49;;;;;;;5.50;5.10;;;7.30;99.90;;;;;;5107828;28;20206;-73
2023/02/20 09:16:20;;;;;;;5.70;4.33;;;7.30;99.90;;;;;;5108091;28;20301;-72
2023/02/20 09:18:49;;;;;;;4.73;4.33;;;7.30;99.90;;;;;;5115188;27;20241;-72
2023/02/20 09:21:18;;;;;;;4.83;4.43;;;7.30;99.90;;;;;;5117051;27;20296;-71
2023/02/20 09:23:45;;;;;;;4.53;4.13;;;7.30;99.90;;;;;;5107658;28;20344;-73
2023/02/20 09:26:12;;;;;;;4.83;4.47;;;7.40;99.90;;;;;;5107843;28;20214;-73
2023/02/20 09:28:39;;;;;;;5.20;4.70;;;7.40;99.90;;;;;;5108068;28;20285;-71
2023/02/20 09:31:06;;;;;;;4.53;4.10;;;7.50;99.90;;;;;;5107731;28;20244;-72
2023/02/20 09:33:34;;;;;;;4.63;4.23;;;7.50;99.90;;;;;;5107985;28;20218;-73
2023/02/20 09:36:02;;;;;;;4.67;4.17;;;7.60;99.90;;;;;;5107403;28;20758;-72
2023/02/20 09:38:29;;;;;;;4.70;4.30;;;7.60;99.90;;;;;;5107598;28;20289;-73
2023/02/20 09:40:59;;;;;;;4.17;3.87;;;7.60;99.90;;;;;;5107509;28;20214;-72
2023/02/20 09:43:38;;;;;;;4.10;3.80;;;7.70;99.90;;;;;;5109567;28;20313;-73
2023/02/20 09:46:09;;;;;;;4.07;3.77;;;7.70;99.90;;;;;;5112383;28;20202;-72
2023/02/20 09:48:47;;;;;;;3.83;3.53;;;7.80;99.90;;;;;;5117571;27;20391;-72
2023/02/20 09:51:17;;;;;;;4.93;4.40;;;7.80;99.90;;;;;;5123750;27;20631;-72
2023/02/20 09:53:52;;;;;;;4.70;4.30;;;7.80;99.90;;;;;;5111910;28;20668;-72
2023/02/20 09:56:23;;;;;;;4.33;4.03;;;7.90;99.90;;;;;;5112210;28;20221;-72
2023/02/20 09:58:58;;;;;;;4.40;4.00;;;7.90;99.90;;;;;;5111720;28;20962;-72
2023/02/20 10:01:26;;;;;;;4.37;3.97;;;8.00;99.90;;;;;;5112303;28;20190;-72
2023/02/20 10:03:56;;;;;;;4.50;4.10;;;8.10;99.90;;;;;;5111897;28;20348;-72
2023/02/20 10:06:28;;;;;;;4.23;3.93;;;8.10;99.90;;;;;;5121365;27;20296;-72
2023/02/20 10:08:55;;;;;;;3.97;3.67;;;8.20;99.90;;;;;;5111820;28;20208;-72
2023/02/20 10:12:02;;;;;;;4.43;4.07;;;8.20;99.90;;;;;;5112013;28;20304;-72
2023/02/20 10:14:51;;;;;;;4.90;3.80;;;8.30;99.90;;;;;;5048595;28;20226;-72
2023/02/20 10:17:26;;;;;;;5.33;4.03;;;8.30;99.90;;;;;;5048539;28;20290;-72
2023/02/20 10:19:59;;;;;;;4.27;3.90;;;8.30;99.90;;;;;;5108659;27;20295;-72
2023/02/20 10:22:33;;;;;;;4.20;3.83;;;8.40;99.90;;;;;;5112131;27;20281;-72
2023/02/20 10:25:11;;;;;;;4.10;3.70;;;8.40;99.90;;;;;;5111184;28;20305;-72
2023/02/20 10:27:48;;;;;;;3.80;3.47;;;8.50;99.90;;;;;;5111575;28;20257;-72
2023/02/20 10:30:18;;;;;;;4.10;3.67;;;8.50;99.90;;;;;;5111392;28;20186;-72
2023/02/20 10:32:50;;;;;;;4.57;3.77;;;8.50;99.90;;;;;;5111383;28;20201;-72
2023/02/20 10:35:23;;;;;;;5.30;3.57;;;8.60;99.90;;;;;;5111639;28;20289;-72
2023/02/20 10:37:55;;;;;;;3.83;3.53;;;8.60;99.90;;;;;;5110995;28;20277;-72
2023/02/20 10:40:27;;;;;;;3.70;3.40;;;8.70;99.90;;;;;;5111387;28;20237;-72
2023/02/20 10:43:00;;;;;;;3.87;3.57;;;8.70;99.90;;;;;;5110831;28;20240;-72
2023/02/20 10:45:36;;;;;;;3.43;3.10;;;8.80;99.90;;;;;;5111212;28;20225;-72
2023/02/20 10:48:05;;;;;;;3.73;3.43;;;8.90;99.90;;;;;;5111227;27;20325;-71
2023/02/20 10:50:38;;;;;;;3.83;3.40;;;8.80;99.90;;;;;;5117168;27;20198;-72
2023/02/20 10:53:15;;;;;;;5.47;3.40;;;8.90;99.90;;;;;;5110841;28;20289;-72
2023/02/20 10:55:47;;;;;;;3.60;3.30;;;9.00;99.90;;;;;;5110988;28;20213;-72
2023/02/20 10:58:19;;;;;;;3.50;3.20;;;9.10;99.90;;;;;;5110868;28;20285;-72
2023/02/20 11:00:50;;;;;;;3.67;3.37;;;9.20;99.90;;;;;;5113274;27;20205;-72
2023/02/20 11:03:23;;;;;;;3.57;3.27;;;9.20;99.90;;;;;;5115894;27;20316;-73
2023/02/20 11:05:53;;;;;;;3.57;2.97;;;9.30;99.90;;;;;;5110328;28;20222;-72
2023/02/20 11:08:22;;;;;;;4.17;3.57;;;9.30;99.90;;;;;;5110188;28;20724;-72
2023/02/20 11:10:50;;;;;;;3.83;2.77;;;9.30;99.90;;;;;;5110709;28;20210;-72
2023/02/20 11:13:22;;;;;;;3.83;3.47;;;9.30;99.90;;;;;;5110472;28;20206;-72
2023/02/20 11:15:53;;;;;;;4.93;3.40;;;9.30;99.90;;;;;;5110222;28;20190;-72
2023/02/20 11:18:27;;;;;;;3.57;3.20;;;9.30;99.90;;;;;;5113400;27;20237;-72
2023/02/20 11:20:55;;;;;;;3.50;3.20;;;9.30;99.90;;;;;;5130966;27;20710;-72
2023/02/20 11:23:41;;;;;;;5.70;3.80;;;9.40;99.90;;;;;;5130648;27;20209;-72
2023/02/20 11:26:29;;;;;;;4.43;2.97;;;9.40;99.90;;;;;;5130912;27;20304;-72
2023/02/20 11:29:05;;;;;;;4.23;3.83;;;9.50;99.90;;;;;;5130777;27;20310;-72
2023/02/20 11:31:33;;;;;;;3.70;3.40;;;9.50;99.90;;;;;;5116817;27;20198;-72
2023/02/20 11:34:02;;;;;;;3.37;3.17;;;9.50;99.90;;;;;;5109620;28;20241;-72
2023/02/20 11:36:36;;;;;;;3.37;3.17;;;9.50;99.90;;;;;;5110292;28;20289;-72
2023/02/20 11:39:17;;;;;;;3.70;3.40;;;9.60;99.90;;;;;;5109345;28;20241;-72
2023/02/20 11:41:44;;;;;;;4.13;3.80;;;9.60;99.90;;;;;;5109970;28;20190;-72
2023/02/20 11:44:24;;;;;;;4.27;3.53;;;9.60;99.90;;;;;;5109354;28;20228;-72
2023/02/20 11:47:10;;;;;;;3.63;3.33;;;9.70;99.90;;;;;;5109996;28;20586;-72
2023/02/20 11:49:37;;;;;;;6.00;3.60;;;9.70;99.90;;;;;;5098338;28;20320;-72
2023/02/20 11:52:12;;;;;;;4.40;4.00;;;9.70;99.90;;;;;;5109866;28;20206;-72
2023/02/20 11:54:41;;;;;;;5.07;4.13;;;9.70;99.90;;;;;;5109808;28;20238;-72
2023/02/20 11:57:20;;;;;;;5.27;4.23;;;9.70;99.90;;;;;;5113466;27;20237;-72
2023/02/20 11:59:48;;;;;;;4.80;4.50;;;9.70;99.90;;;;;;5113285;27;20301;-72
2023/02/20 12:02:24;;;;;;;5.53;5.03;;;9.70;99.90;;;;;;5109637;28;20684;-72
2023/02/20 12:05:12;;;;;;;4.67;4.37;;;9.70;99.90;;;;;;5109369;28;20218;-72
2023/02/20 12:07:42;;;;;;;4.50;4.10;;;9.70;99.90;;;;;;5109399;28;20281;-72
2023/02/20 12:10:27;;;;;;;4.63;4.30;;;9.70;99.90;;;;;;5109603;28;20285;-72
2023/02/20 12:12:54;;;;;;;4.73;4.33;;;9.70;99.90;;;;;;5091618;28;20734;-72
2023/02/20 12:15:24;;;;;;;6.03;4.30;;;9.70;99.90;;;;;;5109396;28;20202;-72
2023/02/20 12:18:27;;;;;;;5.20;4.70;;;9.80;99.90;;;;;;5109562;28;20206;-72
2023/02/20 12:20:58;;;;;;;4.80;4.30;;;9.80;99.90;;;;;;5078200;28;20284;-72
2023/02/20 12:23:35;;;;;;;5.13;4.63;;;9.80;99.90;;;;;;5088480;28;20195;-72
2023/02/20 12:26:20;;;;;;;6.30;5.10;;;9.90;99.90;;;;;;5088961;28;20398;-72
2023/02/20 12:29:02;;;;;;;5.80;5.20;;;9.90;99.90;;;;;;5088997;28;20278;-72
2023/02/20 12:31:43;;;;;;;5.80;5.30;;;9.90;99.90;;;;;;5102013;28;20213;-72
2023/02/20 12:34:33;;;;;;;7.50;6.00;;;9.80;99.90;;;;;;5109018;28;20281;-72
2023/02/20 12:37:09;;;;;;;6.77;6.17;;;9.80;99.90;;;;;;5108756;27;20687;-72
2023/02/20 12:39:52;;;;;;;7.07;6.37;;;9.80;99.90;;;;;;5108510;28;20642;-71
2023/02/20 12:42:30;;;;;;;7.43;5.90;;;9.80;99.90;;;;;;5109113;28;20201;-72
2023/02/20 12:45:14;;;;;;;7.07;5.57;;;9.80;99.90;;;;;;5108811;28;20312;-72
2023/02/20 12:47:44;;;;;;;7.10;6.40;;;9.80;99.90;;;;;;5108651;28;20286;-72
2023/02/20 12:50:25;;;;;;;7.23;6.53;;;9.70;99.90;;;;;;5108682;28;20631;-72
2023/02/20 12:53:10;;;;;;;7.10;6.40;;;9.70;99.90;;;;;;5108608;28;20503;-72
2023/02/20 12:55:48;;;;;;;7.70;6.90;;;9.70;99.90;;;;;;5108503;28;20252;-72
2023/02/20 12:58:29;;;;;;;9.03;6.70;;;9.60;99.90;;;;;;5108695;28;20194;-71
2023/02/20 13:01:00;;;;;;;9.17;8.17;;;9.60;99.90;;;;;;5108367;28;20198;-72
2023/02/20 13:03:39;;;;;;;9.33;8.43;;;9.50;99.90;;;;;;5108464;28;20254;-72
2023/02/20 13:06:07;;;;;;;9.60;8.10;;;9.50;99.90;;;;;;5108462;28;20226;-72
2023/02/20 13:08:37;;;;;;;9.33;8.43;;;9.40;99.90;;;;;;5108099;28;20759;-72
2023/02/20 13:11:11;;;;;;;9.43;8.47;;;9.30;99.90;;;;;;5108507;28;20297;-72
2023/02/20 13:13:50;;;;;;;11.47;9.00;;;9.30;99.90;;;;;;5108489;28;20234;-72
2023/02/20 13:16:22;;;;;;;10.63;9.03;;;9.20;99.90;;;;;;5108143;28;20204;-72
2023/02/20 13:18:58;;;;;;;11.43;9.57;;;9.20;99.90;;;;;;5115460;27;20309;-72
2023/02/20 13:21:30;;;;;;;12.30;9.47;;;9.10;99.90;;;;;;5129043;27;20284;-71
2023/02/20 13:24:31;;;;;;;11.43;9.23;;;9.10;99.90;;;;;;5128696;27;20196;-72
2023/02/20 13:27:05;;;;;;;11.00;9.87;;;9.00;99.90;;;;;;5128752;27;20285;-72
2023/02/20 13:29:35;;;;;;;10.60;9.60;;;9.00;99.90;;;;;;5128642;27;20193;-72
2023/02/20 13:32:04;;;;;;;11.23;9.93;;;9.00;99.90;;;;;;5109581;27;20194;-72
2023/02/20 13:34:39;;;;;;;11.17;10.07;;;9.00;99.90;;;;;;5108185;28;20220;-72